Time;durP1;ratioP1;P1;durP2;ratioP2;P2;SDS_P1;SDS_P2;PMS_P1;PMS_P2;Temp;Humidity;BMP_temperature;BMP_pressure;BME280_temperature;BME280_humidity;BME280_pressure;Samples;Min_cycle;Max_cycle;Signal;HPM_P1;HPM_P2
2022/11/27 00:01:07;;;;;;;7.50;3.60;;;6.80;99.90;;;;;;5043337;28;20021;-40
2022/11/27 00:03:32;;;;;;;10.60;3.85;;;6.80;99.90;;;;;;5033346;28;20435;-41
2022/11/27 00:05:58;;;;;;;6.10;3.72;;;6.80;99.90;;;;;;5043228;28;20791;-39
2022/11/27 00:08:24;;;;;;;6.80;4.00;;;6.70;99.90;;;;;;5043319;28;20021;-40
2022/11/27 00:10:50;;;;;;;5.53;3.63;;;6.80;99.90;;;;;;5043710;28;20081;-41
2022/11/27 00:13:15;;;;;;;9.45;3.38;;;6.80;99.90;;;;;;5043454;28;20025;-40
2022/11/27 00:15:41;;;;;;;10.15;4.05;;;6.80;99.90;;;;;;5043586;28;20108;-42
2022/11/27 00:18:07;;;;;;;8.32;3.95;;;6.70;99.90;;;;;;5043472;28;20943;-41
2022/11/27 00:20:33;;;;;;;7.47;3.65;;;6.70;99.90;;;;;;5043014;28;20044;-42
2022/11/27 00:22:58;;;;;;;8.85;3.78;;;6.70;99.90;;;;;;5043151;28;20025;-41
2022/11/27 00:25:24;;;;;;;7.50;3.42;;;6.70;99.90;;;;;;5043537;28;20037;-41
2022/11/27 00:27:49;;;;;;;6.75;3.97;;;6.70;99.90;;;;;;5042451;28;20111;-41
2022/11/27 00:30:15;;;;;;;8.73;3.80;;;6.70;99.90;;;;;;5042775;28;20055;-41
2022/11/27 00:32:40;;;;;;;11.50;4.03;;;6.70;99.90;;;;;;5043215;28;20114;-41
2022/11/27 00:35:06;;;;;;;6.97;3.97;;;6.60;99.90;;;;;;5042865;28;20498;-40
2022/11/27 00:37:32;;;;;;;9.95;3.95;;;6.60;99.90;;;;;;5043279;28;20059;-40
2022/11/27 00:39:58;;;;;;;8.43;4.03;;;6.70;99.90;;;;;;5043343;28;20036;-39
2022/11/27 00:42:23;;;;;;;6.28;3.60;;;6.70;99.90;;;;;;5042582;28;20086;-39
2022/11/27 00:44:50;;;;;;;8.20;4.28;;;6.70;99.90;;;;;;5042825;28;20037;-41
2022/11/27 00:47:15;;;;;;;6.88;3.70;;;6.70;99.90;;;;;;5042687;28;20032;-40
2022/11/27 00:49:41;;;;;;;6.43;3.42;;;6.70;99.90;;;;;;5041767;28;20028;-40
2022/11/27 00:52:06;;;;;;;9.13;4.07;;;6.60;99.90;;;;;;5043100;28;20132;-40
2022/11/27 00:54:32;;;;;;;10.45;3.90;;;6.70;99.90;;;;;;5042490;28;20029;-41
2022/11/27 00:56:58;;;;;;;9.93;4.00;;;6.60;99.90;;;;;;5042392;28;20040;-41
2022/11/27 00:59:23;;;;;;;8.30;4.00;;;6.60;99.90;;;;;;5042492;28;20036;-40
2022/11/27 01:01:49;;;;;;;7.90;4.15;;;6.60;99.90;;;;;;5042747;28;20028;-42
2022/11/27 01:04:15;;;;;;;7.43;3.75;;;6.60;99.90;;;;;;5041613;28;20429;-41
2022/11/27 01:06:41;;;;;;;8.10;4.00;;;6.60;99.90;;;;;;5041846;28;20040;-41
2022/11/27 01:09:08;;;;;;;11.32;4.63;;;6.60;99.90;;;;;;5042224;28;20025;-41
2022/11/27 01:11:35;;;;;;;8.40;3.90;;;6.60;99.90;;;;;;5041870;28;20393;-41
2022/11/27 01:14:04;;;;;;;9.80;4.47;;;6.60;99.90;;;;;;5041750;28;20029;-41
2022/11/27 01:16:32;;;;;;;8.85;4.07;;;6.60;99.90;;;;;;5042286;28;20048;-41
2022/11/27 01:19:00;;;;;;;10.15;4.40;;;6.50;99.90;;;;;;5041662;28;20472;-41
2022/11/27 01:21:28;;;;;;;8.82;4.10;;;6.50;99.90;;;;;;5042714;28;20044;-42
2022/11/27 01:23:54;;;;;;;8.07;4.10;;;6.50;99.90;;;;;;5041474;28;20028;-41
2022/11/27 01:26:20;;;;;;;8.88;4.28;;;6.50;99.90;;;;;;5041362;28;20076;-38
2022/11/27 01:28:46;;;;;;;9.93;4.13;;;6.40;99.90;;;;;;5041402;28;20472;-39
2022/11/27 01:31:16;;;;;;;9.32;4.28;;;6.40;99.90;;;;;;5041688;28;20032;-39
2022/11/27 01:33:42;;;;;;;8.20;4.93;;;6.40;99.90;;;;;;5041620;28;20086;-41
2022/11/27 01:36:10;;;;;;;8.32;4.68;;;6.40;99.90;;;;;;5037943;28;20164;-40
2022/11/27 01:38:36;;;;;;;7.32;4.32;;;6.40;99.90;;;;;;5041086;28;20025;-41
2022/11/27 01:41:07;;;;;;;10.70;4.68;;;6.30;99.90;;;;;;5040985;28;20024;-40
2022/11/27 01:43:42;;;;;;;7.05;4.45;;;6.30;99.90;;;;;;5042258;28;20025;-42
2022/11/27 01:46:42;;;;;;;10.13;4.80;;;6.30;99.90;;;;;;5041065;28;20040;-41
2022/11/27 01:49:21;;;;;;;7.63;4.30;;;6.20;99.90;;;;;;5041560;28;20094;-42
2022/11/27 01:51:56;;;;;;;9.40;5.30;;;6.20;99.90;;;;;;5037549;28;20033;-40
2022/11/27 01:54:25;;;;;;;7.30;4.30;;;6.10;99.90;;;;;;5042078;28;20638;-39
2022/11/27 01:56:55;;;;;;;8.45;4.70;;;6.10;99.90;;;;;;5038939;28;20120;-37
2022/11/27 01:59:21;;;;;;;10.32;5.05;;;6.10;99.90;;;;;;5041438;28;20108;-39
2022/11/27 02:01:47;;;;;;;8.73;4.75;;;6.10;99.90;;;;;;5040573;28;20517;-35
2022/11/27 02:04:13;;;;;;;8.45;4.70;;;6.00;99.90;;;;;;5041306;28;20029;-40
2022/11/27 02:06:38;;;;;;;9.95;4.50;;;6.00;99.90;;;;;;5040136;28;20087;-40
2022/11/27 02:09:04;;;;;;;7.90;4.38;;;6.00;99.90;;;;;;5042012;28;20017;-40
2022/11/27 02:11:48;;;;;;;10.63;4.70;;;6.00;99.90;;;;;;5041815;28;20566;-38
2022/11/27 02:14:27;;;;;;;9.13;5.20;;;6.00;99.90;;;;;;5021825;28;20029;-41
2022/11/27 02:16:59;;;;;;;11.02;5.03;;;6.00;99.90;;;;;;5038462;28;20029;-42
2022/11/27 02:19:49;;;;;;;7.53;4.53;;;5.90;99.90;;;;;;5022320;28;20145;-41
2022/11/27 02:22:17;;;;;;;9.65;4.85;;;5.90;99.90;;;;;;5038600;28;20368;-41
2022/11/27 02:24:48;;;;;;;6.38;4.65;;;5.90;99.90;;;;;;5041793;28;20040;-39
2022/11/27 02:27:51;;;;;;;6.28;4.40;;;5.90;99.90;;;;;;5040408;28;20033;-41
2022/11/27 02:30:17;;;;;;;7.38;4.68;;;5.90;99.90;;;;;;5041835;28;20121;-40
2022/11/27 02:32:53;;;;;;;7.53;5.10;;;5.90;99.90;;;;;;5041050;28;20706;-42
2022/11/27 02:35:30;;;;;;;7.70;4.53;;;5.90;99.90;;;;;;5041538;28;20028;-40
2022/11/27 02:38:05;;;;;;;7.32;4.65;;;5.90;99.90;;;;;;5040992;28;20802;-40
2022/11/27 02:40:37;;;;;;;9.95;4.80;;;5.90;99.90;;;;;;5040752;28;20473;-41
2022/11/27 02:43:20;;;;;;;8.43;5.18;;;5.90;99.90;;;;;;5038146;28;20017;-39
2022/11/27 02:45:49;;;;;;;7.30;4.63;;;5.90;99.90;;;;;;5041605;28;20033;-41
2022/11/27 02:48:18;;;;;;;8.73;4.82;;;5.90;99.90;;;;;;5040845;28;20043;-40
2022/11/27 02:50:45;;;;;;;7.63;4.70;;;5.90;99.90;;;;;;5041317;28;20111;-42
2022/11/27 02:53:19;;;;;;;6.45;4.38;;;5.90;99.90;;;;;;5043485;28;20036;-41
2022/11/27 02:55:47;;;;;;;7.75;4.60;;;5.90;99.90;;;;;;5044687;28;20029;-41
2022/11/27 02:58:16;;;;;;;11.05;4.82;;;5.90;99.90;;;;;;5044810;28;20040;-40
2022/11/27 03:00:43;;;;;;;7.05;4.47;;;5.90;99.90;;;;;;5025043;28;20040;-40
2022/11/27 03:03:12;;;;;;;7.70;3.95;;;5.90;99.90;;;;;;5038428;28;20029;-39
2022/11/27 03:05:41;;;;;;;8.68;4.93;;;5.90;99.90;;;;;;5044960;28;20382;-41
2022/11/27 03:08:18;;;;;;;8.30;4.15;;;5.90;99.90;;;;;;5044949;28;20025;-40
2022/11/27 03:10:54;;;;;;;8.13;4.15;;;5.90;99.90;;;;;;5044121;28;20048;-42
2022/11/27 03:13:19;;;;;;;6.25;4.00;;;5.90;99.90;;;;;;5044675;28;20029;-40
2022/11/27 03:16:17;;;;;;;8.18;4.22;;;5.90;99.90;;;;;;5044000;28;20039;-42
2022/11/27 03:19:25;;;;;;;8.95;4.13;;;6.00;99.90;;;;;;5044256;28;20064;-41
2022/11/27 03:21:57;;;;;;;8.75;4.32;;;6.00;99.90;;;;;;5024300;28;20057;-40
2022/11/27 03:24:23;;;;;;;6.78;3.72;;;6.10;99.90;;;;;;5042542;28;20068;-41
2022/11/27 03:26:49;;;;;;;6.75;3.70;;;6.10;99.90;;;;;;5043951;28;20036;-40
2022/11/27 03:29:22;;;;;;;6.93;3.85;;;6.10;99.90;;;;;;5044510;28;20033;-41
2022/11/27 03:31:48;;;;;;;7.53;3.63;;;6.20;99.90;;;;;;5023819;28;20516;-41
2022/11/27 03:34:15;;;;;;;8.07;3.92;;;6.20;99.90;;;;;;5038923;28;20025;-42
2022/11/27 03:36:40;;;;;;;6.88;3.42;;;6.20;99.90;;;;;;5043752;28;20048;-41
2022/11/27 03:39:06;;;;;;;7.15;3.72;;;6.30;99.90;;;;;;5043144;28;20806;-40
2022/11/27 03:41:52;;;;;;;10.43;3.92;;;6.30;99.90;;;;;;5044666;28;20123;-41
2022/11/27 03:44:38;;;;;;;7.82;4.03;;;6.30;99.90;;;;;;5043554;28;20733;-40
2022/11/27 03:47:23;;;;;;;7.38;3.47;;;6.30;99.90;;;;;;5044826;28;20386;-41
2022/11/27 03:50:25;;;;;;;7.35;3.10;;;6.40;99.90;;;;;;5044121;28;20036;-41
2022/11/27 03:53:09;;;;;;;5.30;3.03;;;6.40;99.90;;;;;;5023300;28;20107;-41
2022/11/27 03:55:45;;;;;;;7.57;3.00;;;6.40;99.90;;;;;;5043958;28;20028;-40
2022/11/27 03:58:25;;;;;;;10.07;3.63;;;6.40;99.90;;;;;;5044490;28;20025;-41
2022/11/27 04:00:52;;;;;;;5.18;3.22;;;6.40;99.90;;;;;;5043160;28;20061;-41
2022/11/27 04:03:24;;;;;;;6.55;3.60;;;6.40;99.90;;;;;;5043470;28;20477;-40
2022/11/27 04:05:50;;;;;;;7.30;3.28;;;6.40;99.90;;;;;;5042492;28;20056;-41
2022/11/27 04:08:16;;;;;;;7.50;3.05;;;6.40;99.90;;;;;;5044315;28;20024;-40
2022/11/27 04:10:41;;;;;;;5.53;3.17;;;6.40;99.90;;;;;;5043050;28;20025;-41
2022/11/27 04:13:07;;;;;;;6.90;3.60;;;6.40;99.90;;;;;;5042647;28;20056;-40
2022/11/27 04:15:32;;;;;;;7.47;3.63;;;6.50;99.90;;;;;;5043270;28;20025;-40
2022/11/27 04:17:58;;;;;;;6.90;3.45;;;6.50;99.90;;;;;;5043015;28;20027;-41
2022/11/27 04:20:23;;;;;;;8.23;4.05;;;6.50;99.90;;;;;;5042511;28;20128;-41
2022/11/27 04:22:49;;;;;;;8.32;3.35;;;6.50;99.90;;;;;;5043576;28;20341;-40
2022/11/27 04:25:14;;;;;;;8.25;3.85;;;6.50;99.90;;;;;;5042891;28;20033;-41
2022/11/27 04:27:40;;;;;;;6.13;3.63;;;6.50;99.90;;;;;;5042181;28;20024;-42
2022/11/27 04:30:06;;;;;;;7.93;3.35;;;6.50;99.90;;;;;;5042529;28;20472;-41
2022/11/27 04:32:32;;;;;;;7.25;3.60;;;6.50;99.90;;;;;;5043414;28;20024;-41
2022/11/27 04:34:57;;;;;;;7.18;3.35;;;6.50;99.90;;;;;;5041839;28;20017;-41
2022/11/27 04:37:23;;;;;;;5.82;3.25;;;6.50;99.90;;;;;;5043449;28;20441;-40
2022/11/27 04:39:48;;;;;;;4.78;3.35;;;6.50;99.90;;;;;;5042908;28;20404;-41
2022/11/27 04:42:14;;;;;;;9.23;3.65;;;6.60;99.90;;;;;;5042029;28;20029;-41
2022/11/27 04:44:39;;;;;;;6.70;3.30;;;6.60;99.90;;;;;;5043190;28;20163;-41
2022/11/27 04:47:05;;;;;;;7.90;3.42;;;6.60;99.90;;;;;;5042352;28;20701;-36
2022/11/27 04:49:30;;;;;;;6.05;3.10;;;6.60;99.90;;;;;;5042653;28;20029;-39
2022/11/27 04:51:56;;;;;;;8.07;4.05;;;6.60;99.90;;;;;;5042421;28;20044;-40
2022/11/27 04:54:21;;;;;;;8.77;3.10;;;6.60;99.90;;;;;;5042864;28;20052;-41
2022/11/27 04:56:47;;;;;;;7.50;3.15;;;6.60;99.90;;;;;;5042068;28;20021;-41
2022/11/27 04:59:13;;;;;;;6.95;3.13;;;6.60;99.90;;;;;;5042212;28;20029;-38
2022/11/27 05:01:39;;;;;;;7.70;3.22;;;6.70;99.90;;;;;;5042088;28;20021;-38
2022/11/27 05:04:04;;;;;;;4.90;3.08;;;6.70;99.90;;;;;;5042653;28;20021;-41
2022/11/27 05:06:30;;;;;;;6.43;3.00;;;6.70;99.90;;;;;;5043113;28;20745;-39
2022/11/27 05:09:00;;;;;;;6.85;3.45;;;6.70;99.90;;;;;;5042178;28;20328;-41
2022/11/27 05:11:26;;;;;;;6.97;3.50;;;6.70;99.90;;;;;;5043490;28;20733;-41
2022/11/27 05:14:13;;;;;;;5.00;3.20;;;6.70;99.90;;;;;;5042884;28;20039;-41
2022/11/27 05:16:37;;;;;;;6.75;3.03;;;6.70;99.90;;;;;;5041126;28;20032;-34
2022/11/27 05:19:03;;;;;;;4.93;2.92;;;6.60;99.90;;;;;;5043310;28;20017;-39
2022/11/27 05:21:29;;;;;;;5.93;2.97;;;6.70;99.90;;;;;;5042916;28;20549;-39
2022/11/27 05:23:55;;;;;;;5.43;3.25;;;6.70;99.90;;;;;;5042090;28;20049;-40
2022/11/27 05:26:20;;;;;;;9.93;3.28;;;6.70;99.90;;;;;;5042522;28;20060;-40
2022/11/27 05:28:46;;;;;;;5.63;3.20;;;6.70;99.90;;;;;;5041352;28;20021;-38
2022/11/27 05:31:11;;;;;;;5.88;3.28;;;6.70;99.90;;;;;;5041695;28;20029;-41
2022/11/27 05:33:37;;;;;;;8.48;3.80;;;6.70;99.90;;;;;;5041515;28;20087;-41
2022/11/27 05:36:02;;;;;;;6.68;3.53;;;6.70;99.90;;;;;;5041344;28;20168;-40
2022/11/27 05:38:28;;;;;;;8.30;3.22;;;6.70;99.90;;;;;;5041943;28;20029;-40
2022/11/27 05:40:53;;;;;;;5.68;3.25;;;6.70;99.90;;;;;;5041779;28;20033;-41
2022/11/27 05:43:19;;;;;;;6.40;3.38;;;6.70;99.90;;;;;;5041702;28;20057;-39
2022/11/27 05:45:44;;;;;;;6.80;3.50;;;6.70;99.90;;;;;;5041096;28;20044;-41
2022/11/27 05:48:10;;;;;;;5.03;3.28;;;6.70;99.90;;;;;;5041341;28;20546;-40
2022/11/27 05:50:35;;;;;;;6.32;3.63;;;6.70;99.90;;;;;;5042324;28;20055;-41
2022/11/27 05:53:01;;;;;;;6.30;3.50;;;6.70;99.90;;;;;;5040819;28;20476;-41
2022/11/27 05:55:26;;;;;;;4.97;2.90;;;6.70;99.90;;;;;;5041438;28;20025;-41
2022/11/27 05:57:52;;;;;;;7.10;3.40;;;6.70;99.90;;;;;;5041670;28;20032;-41
2022/11/27 06:00:17;;;;;;;6.22;3.10;;;6.70;99.90;;;;;;5041162;28;20044;-41
2022/11/27 06:02:43;;;;;;;8.10;3.35;;;6.70;99.90;;;;;;5041592;28;20106;-40
2022/11/27 06:05:09;;;;;;;7.60;3.80;;;6.80;99.90;;;;;;5041292;28;20045;-41
2022/11/27 06:07:34;;;;;;;6.20;3.55;;;6.70;99.90;;;;;;5041514;28;20112;-40
2022/11/27 06:10:00;;;;;;;5.68;3.40;;;6.80;99.90;;;;;;5041101;28;20025;-38
2022/11/27 06:12:25;;;;;;;6.47;3.55;;;6.80;99.90;;;;;;5042075;28;20408;-41
2022/11/27 06:14:51;;;;;;;5.57;3.33;;;6.80;99.90;;;;;;5041270;28;20320;-40
2022/11/27 06:17:16;;;;;;;7.80;3.45;;;6.80;99.90;;;;;;5041618;28;20048;-39
2022/11/27 06:19:42;;;;;;;7.82;3.33;;;6.80;99.90;;;;;;5040578;28;20029;-38
2022/11/27 06:22:08;;;;;;;6.60;3.45;;;6.80;99.90;;;;;;5041093;28;20063;-40
2022/11/27 06:24:33;;;;;;;6.13;3.17;;;6.80;99.90;;;;;;5041092;28;20036;-41
2022/11/27 06:26:59;;;;;;;5.78;3.60;;;6.80;99.90;;;;;;5041218;28;20040;-41
2022/11/27 06:29:24;;;;;;;6.05;3.50;;;6.90;99.90;;;;;;5045441;28;20150;-41
2022/11/27 06:31:50;;;;;;;5.13;3.30;;;6.90;99.90;;;;;;5045260;28;20028;-40
2022/11/27 06:34:15;;;;;;;7.85;3.80;;;6.90;99.90;;;;;;5044890;28;20101;-41
2022/11/27 06:36:41;;;;;;;9.88;3.67;;;6.90;99.90;;;;;;5045880;28;20056;-41
2022/11/27 06:39:10;;;;;;;6.40;3.20;;;6.90;99.90;;;;;;5046018;28;20457;-41
2022/11/27 06:41:35;;;;;;;6.45;3.45;;;6.90;99.90;;;;;;5045458;28;20072;-41
2022/11/27 06:44:02;;;;;;;5.40;3.30;;;6.90;99.90;;;;;;5044897;28;20124;-40
2022/11/27 06:46:28;;;;;;;5.00;3.05;;;7.00;99.90;;;;;;5044991;28;20498;-41
2022/11/27 06:48:55;;;;;;;5.35;3.00;;;7.00;99.90;;;;;;5044209;28;20074;-40
2022/11/27 06:51:24;;;;;;;6.85;3.47;;;7.00;99.90;;;;;;5045180;28;20044;-40
2022/11/27 06:53:50;;;;;;;7.65;3.95;;;7.00;99.90;;;;;;5044818;28;20471;-39
2022/11/27 06:56:22;;;;;;;4.50;3.25;;;7.00;99.90;;;;;;5043993;28;20104;-40
2022/11/27 06:58:56;;;;;;;5.32;3.15;;;7.00;99.90;;;;;;5045225;28;20098;-41
2022/11/27 07:01:24;;;;;;;8.13;3.67;;;7.00;99.90;;;;;;5044397;28;20032;-41
2022/11/27 07:03:50;;;;;;;5.60;3.88;;;7.00;99.90;;;;;;5025330;28;20385;-39
2022/11/27 07:06:22;;;;;;;5.82;3.72;;;7.00;99.90;;;;;;5038815;28;20584;-39
2022/11/27 07:08:48;;;;;;;9.45;4.63;;;7.00;99.90;;;;;;5044126;28;20029;-40
2022/11/27 07:11:19;;;;;;;9.07;4.72;;;7.00;99.90;;;;;;5044468;28;20029;-40
2022/11/27 07:13:47;;;;;;;7.45;4.22;;;7.00;99.90;;;;;;5044999;28;20028;-40
2022/11/27 07:16:13;;;;;;;7.10;4.18;;;7.00;99.90;;;;;;5043722;28;20140;-41
2022/11/27 07:18:46;;;;;;;6.93;4.18;;;7.00;99.90;;;;;;5044178;28;20093;-41
2022/11/27 07:21:12;;;;;;;8.98;4.50;;;7.00;99.90;;;;;;5044373;28;20032;-39
2022/11/27 07:23:38;;;;;;;7.90;4.50;;;7.00;99.90;;;;;;5044238;28;20031;-42
2022/11/27 07:26:05;;;;;;;6.75;4.10;;;7.00;99.90;;;;;;5043682;28;20033;-40
2022/11/27 07:28:31;;;;;;;8.55;5.07;;;7.00;99.90;;;;;;5044650;28;20453;-42
2022/11/27 07:30:57;;;;;;;7.82;4.47;;;7.10;99.90;;;;;;5043829;28;20112;-40
2022/11/27 07:33:24;;;;;;;7.07;4.55;;;7.10;99.90;;;;;;5044685;28;20033;-41
2022/11/27 07:35:56;;;;;;;8.70;4.85;;;7.10;99.90;;;;;;5044294;28;20048;-41
2022/11/27 07:38:22;;;;;;;6.80;4.40;;;7.10;99.90;;;;;;5043967;28;20436;-38
2022/11/27 07:40:47;;;;;;;9.90;4.60;;;7.10;99.90;;;;;;5044809;28;20543;-40
2022/11/27 07:43:13;;;;;;;6.05;4.25;;;7.10;99.90;;;;;;5044575;28;20033;-41
2022/11/27 07:45:38;;;;;;;8.43;4.63;;;7.10;99.90;;;;;;5043493;28;20084;-41
2022/11/27 07:48:04;;;;;;;8.98;4.57;;;7.10;99.90;;;;;;5043613;28;20032;-39
2022/11/27 07:50:30;;;;;;;8.43;4.70;;;7.10;99.90;;;;;;5043995;28;20028;-38
2022/11/27 07:52:55;;;;;;;6.82;4.63;;;7.10;99.90;;;;;;5043752;28;20086;-40
2022/11/27 07:55:21;;;;;;;9.48;5.07;;;7.10;99.90;;;;;;5043946;28;20037;-41
2022/11/27 07:57:46;;;;;;;11.63;5.35;;;7.10;99.90;;;;;;5043486;28;20024;-37
2022/11/27 08:00:12;;;;;;;7.30;4.93;;;7.10;99.90;;;;;;5043764;28;20033;-41
2022/11/27 08:02:38;;;;;;;9.15;5.55;;;7.10;99.90;;;;;;5043127;28;20017;-37
2022/11/27 08:05:03;;;;;;;9.35;5.13;;;7.10;99.90;;;;;;5042916;28;20036;-40
2022/11/27 08:07:29;;;;;;;8.95;5.43;;;7.10;99.90;;;;;;5043503;28;20028;-39
2022/11/27 08:09:59;;;;;;;7.75;5.13;;;7.10;99.90;;;;;;5043886;28;20059;-41
2022/11/27 08:12:24;;;;;;;10.05;5.25;;;7.10;99.90;;;;;;5043306;28;20025;-40
2022/11/27 08:14:50;;;;;;;6.80;4.20;;;7.10;99.90;;;;;;5043547;28;20055;-41
2022/11/27 08:17:15;;;;;;;7.65;5.07;;;7.10;99.90;;;;;;5043250;28;20025;-41
2022/11/27 08:19:41;;;;;;;8.40;5.25;;;7.10;99.90;;;;;;5042638;28;20031;-40
2022/11/27 08:22:11;;;;;;;8.95;5.40;;;7.10;99.90;;;;;;5043195;28;20461;-41
2022/11/27 08:24:37;;;;;;;10.52;6.10;;;7.10;99.90;;;;;;5041825;28;20036;-41
2022/11/27 08:27:03;;;;;;;10.13;5.63;;;7.10;99.90;;;;;;5042913;28;20041;-40
2022/11/27 08:29:29;;;;;;;10.18;5.60;;;7.10;99.90;;;;;;5042764;28;20056;-39
2022/11/27 08:31:54;;;;;;;9.15;5.40;;;7.10;99.90;;;;;;5043002;28;20465;-41
2022/11/27 08:34:20;;;;;;;8.70;5.80;;;7.00;99.90;;;;;;5041938;28;20024;-41
2022/11/27 08:36:46;;;;;;;8.15;5.45;;;7.10;99.90;;;;;;5043466;28;20048;-40
2022/11/27 08:39:11;;;;;;;11.80;6.68;;;7.10;99.90;;;;;;5042937;28;20040;-41
2022/11/27 08:41:37;;;;;;;9.75;5.90;;;7.10;99.90;;;;;;5042609;28;20021;-40
2022/11/27 08:44:02;;;;;;;12.45;6.40;;;7.00;99.90;;;;;;5042821;28;20557;-37
2022/11/27 08:46:28;;;;;;;8.32;6.53;;;7.00;99.90;;;;;;5042895;28;20552;-41
2022/11/27 08:48:53;;;;;;;8.98;5.68;;;7.10;99.90;;;;;;5042391;28;20470;-41
2022/11/27 08:51:19;;;;;;;10.15;6.13;;;7.00;99.90;;;;;;5041870;28;20151;-40
2022/11/27 08:53:44;;;;;;;9.18;6.13;;;7.00;99.90;;;;;;5042200;28;20028;-40
2022/11/27 08:56:17;;;;;;;9.65;6.57;;;7.00;99.90;;;;;;5042154;28;20039;-42
2022/11/27 08:58:44;;;;;;;10.25;6.22;;;7.00;99.90;;;;;;5042825;28;20021;-41
2022/11/27 09:01:27;;;;;;;13.27;7.18;;;7.00;99.90;;;;;;5041659;28;20039;-40
2022/11/27 09:03:52;;;;;;;;;;;7.00;99.90;;;;;;5042493;28;21062;-40
2022/11/27 09:06:23;;;;;;;10.75;6.65;;;7.00;99.90;;;;;;5042379;28;20008;-39
2022/11/27 09:08:49;;;;;;;11.93;6.85;;;7.10;99.90;;;;;;5041780;28;20032;-41
2022/11/27 09:11:18;;;;;;;9.18;5.93;;;7.00;99.90;;;;;;5042135;28;20029;-40
2022/11/27 09:13:44;;;;;;;11.45;6.47;;;7.10;99.90;;;;;;5043089;28;20040;-40
2022/11/27 09:16:12;;;;;;;10.98;7.13;;;7.10;99.90;;;;;;5041654;28;20032;-41
2022/11/27 09:18:38;;;;;;;11.82;6.88;;;7.10;99.90;;;;;;5042101;28;20029;-39
2022/11/27 09:21:06;;;;;;;10.05;6.40;;;7.10;99.90;;;;;;5041443;28;20048;-41
2022/11/27 09:23:32;;;;;;;11.18;6.65;;;7.10;99.90;;;;;;5041947;28;20028;-40
2022/11/27 09:26:03;;;;;;;9.55;6.03;;;7.10;99.90;;;;;;5041787;28;20037;-40
2022/11/27 09:28:28;;;;;;;11.00;6.57;;;7.20;99.90;;;;;;5042723;28;20111;-39
2022/11/27 09:30:59;;;;;;;9.70;5.82;;;7.20;99.90;;;;;;5041285;28;20021;-40
2022/11/27 09:33:26;;;;;;;14.05;7.70;;;7.20;99.90;;;;;;5042447;28;20032;-40
2022/11/27 09:35:52;;;;;;;11.75;6.53;;;7.20;99.90;;;;;;5041967;28;20522;-40
2022/11/27 09:38:18;;;;;;;12.63;6.93;;;7.20;99.90;;;;;;5040942;28;20028;-43
2022/11/27 09:40:54;;;;;;;11.90;6.13;;;7.30;99.90;;;;;;5041742;28;20033;-41
2022/11/27 09:43:29;;;;;;;9.57;6.63;;;7.30;99.90;;;;;;5041297;28;20116;-41
2022/11/27 09:46:00;;;;;;;12.95;6.63;;;7.30;99.90;;;;;;5041760;28;20033;-40
2022/11/27 09:48:36;;;;;;;9.45;6.15;;;7.30;99.90;;;;;;5042145;28;20034;-40
2022/11/27 09:51:11;;;;;;;11.32;7.05;;;7.30;99.90;;;;;;5041570;28;20098;-40
2022/11/27 09:53:51;;;;;;;10.57;6.22;;;7.30;99.90;;;;;;5041472;28;20784;-39
2022/11/27 09:56:19;;;;;;;8.52;6.03;;;7.40;99.90;;;;;;5041636;28;20029;-40
2022/11/27 09:58:49;;;;;;;12.15;6.60;;;7.40;99.90;;;;;;5041650;28;20484;-41
2022/11/27 10:01:17;;;;;;;9.68;5.97;;;7.40;99.90;;;;;;5042164;28;20422;-42
2022/11/27 10:03:44;;;;;;;8.88;6.15;;;7.40;99.90;;;;;;5041812;28;20043;-41
2022/11/27 10:06:32;;;;;;;9.60;5.97;;;7.50;99.90;;;;;;5041458;28;20041;-41
2022/11/27 10:09:23;;;;;;;10.45;6.55;;;7.50;99.90;;;;;;5032863;28;20456;-38
2022/11/27 10:12:29;;;;;;;11.07;6.13;;;7.50;99.90;;;;;;5040583;28;20028;-39
2022/11/27 10:15:02;;;;;;;9.48;6.20;;;7.50;99.90;;;;;;5041953;28;20041;-35
2022/11/27 10:17:41;;;;;;;10.52;6.30;;;7.50;99.90;;;;;;5042451;28;20035;-39
2022/11/27 10:20:14;;;;;;;11.23;6.55;;;7.50;99.90;;;;;;5040849;28;20025;-40
2022/11/27 10:22:52;;;;;;;8.90;6.35;;;7.60;99.90;;;;;;5040923;28;20787;-40
2022/11/27 10:25:37;;;;;;;10.00;6.35;;;7.50;99.90;;;;;;5040920;28;20044;-40
2022/11/27 10:28:17;;;;;;;11.68;6.95;;;7.60;99.90;;;;;;5041301;28;20021;-40
2022/11/27 10:30:54;;;;;;;10.52;6.55;;;7.60;99.90;;;;;;5021812;28;20041;-40
2022/11/27 10:33:26;;;;;;;9.70;6.57;;;7.60;99.90;;;;;;5036263;28;20032;-40
2022/11/27 10:35:52;;;;;;;11.32;7.25;;;7.60;99.90;;;;;;5041270;28;20091;-40
2022/11/27 10:38:25;;;;;;;9.68;6.10;;;7.60;99.90;;;;;;5040890;28;20556;-44
2022/11/27 10:41:09;;;;;;;9.38;5.95;;;7.70;99.90;;;;;;5041108;28;20076;-41
2022/11/27 10:43:35;;;;;;;7.18;5.30;;;7.70;99.90;;;;;;5041507;28;20036;-41
2022/11/27 10:46:07;;;;;;;7.70;5.43;;;7.70;99.90;;;;;;5041140;28;20380;-40
2022/11/27 10:48:33;;;;;;;7.05;5.47;;;7.80;99.90;;;;;;5039948;28;20392;-41
2022/11/27 10:50:59;;;;;;;10.88;6.22;;;7.80;99.90;;;;;;5041082;28;20086;-40
2022/11/27 10:53:33;;;;;;;8.10;5.15;;;7.80;99.90;;;;;;5040568;28;20061;-41
2022/11/27 10:56:12;;;;;;;8.43;5.60;;;7.90;99.90;;;;;;5040764;28;20032;-40
2022/11/27 10:58:55;;;;;;;6.97;4.90;;;7.90;99.90;;;;;;5040423;28;20017;-41
2022/11/27 11:01:22;;;;;;;5.95;4.90;;;7.90;99.90;;;;;;5040811;28;20040;-41
2022/11/27 11:03:47;;;;;;;9.88;5.75;;;7.90;99.90;;;;;;5041276;28;20021;-40
2022/11/27 11:06:16;;;;;;;8.30;6.07;;;7.90;99.90;;;;;;5040952;28;20049;-42
2022/11/27 11:08:42;;;;;;;10.73;5.97;;;7.90;99.90;;;;;;5040076;28;20045;-39
2022/11/27 11:11:08;;;;;;;8.68;5.95;;;7.80;99.90;;;;;;5040967;28;20124;-41
2022/11/27 11:13:40;;;;;;;8.27;5.53;;;7.80;99.90;;;;;;5042218;28;20029;-40
2022/11/27 11:16:15;;;;;;;8.30;6.50;;;7.90;99.90;;;;;;5044181;28;20032;-40
2022/11/27 11:18:47;;;;;;;7.78;5.38;;;7.90;99.90;;;;;;5044787;28;20083;-40
2022/11/27 11:21:30;;;;;;;8.40;5.10;;;7.90;99.90;;;;;;5044447;28;20534;-40
2022/11/27 11:24:06;;;;;;;6.25;5.07;;;7.90;99.90;;;;;;5044116;28;20796;-38
2022/11/27 11:26:43;;;;;;;5.57;4.43;;;8.00;99.90;;;;;;5044767;28;20172;-41
2022/11/27 11:29:27;;;;;;;7.97;5.40;;;8.00;99.90;;;;;;5043993;28;20496;-38
2022/11/27 11:31:55;;;;;;;7.45;4.90;;;8.00;99.90;;;;;;5044308;28;20255;-39
2022/11/27 11:34:29;;;;;;;8.77;4.90;;;8.00;99.90;;;;;;5044013;28;20086;-40
2022/11/27 11:37:00;;;;;;;9.02;5.32;;;8.00;99.90;;;;;;5043381;28;20484;-41
2022/11/27 11:39:30;;;;;;;9.15;5.78;;;8.10;99.90;;;;;;5044658;28;20023;-42
2022/11/27 11:41:56;;;;;;;9.27;5.63;;;8.00;99.90;;;;;;5044170;28;20413;-39
2022/11/27 11:44:36;;;;;;;9.63;6.30;;;8.10;99.90;;;;;;5043713;28;20021;-40
2022/11/27 11:47:01;;;;;;;6.50;4.97;;;8.10;99.90;;;;;;5034250;28;20506;-40
2022/11/27 11:49:30;;;;;;;6.38;4.95;;;8.00;99.90;;;;;;5044415;28;20014;-41
2022/11/27 11:52:28;;;;;;;8.30;5.30;;;8.10;99.90;;;;;;5043870;28;20025;-41
2022/11/27 11:55:09;;;;;;;9.50;6.07;;;8.10;99.90;;;;;;5044660;28;20024;-38
2022/11/27 11:57:35;;;;;;;7.07;4.88;;;8.10;99.90;;;;;;5043354;28;20059;-39
2022/11/27 12:00:23;;;;;;;7.70;5.28;;;8.10;99.90;;;;;;5043685;28;20484;-41
2022/11/27 12:02:58;;;;;;;9.20;5.72;;;8.10;99.90;;;;;;5035907;28;20130;-40
2022/11/27 12:06:02;;;;;;;8.45;5.30;;;8.10;99.90;;;;;;5042666;28;20515;-39
2022/11/27 12:09:01;;;;;;;9.15;5.95;;;8.10;99.90;;;;;;5043758;28;20021;-40
2022/11/27 12:11:38;;;;;;;7.40;4.97;;;8.10;99.90;;;;;;5042573;28;20040;-38
2022/11/27 12:14:13;;;;;;;6.97;5.18;;;8.10;99.90;;;;;;5043642;28;20037;-40
2022/11/27 12:16:59;;;;;;;11.32;5.68;;;8.10;99.90;;;;;;5043547;28;20033;-40
2022/11/27 12:19:43;;;;;;;8.25;5.25;;;8.10;99.90;;;;;;5023616;28;20045;-40
2022/11/27 12:22:44;;;;;;;6.30;5.28;;;8.20;99.90;;;;;;5040572;28;20025;-36
2022/11/27 12:25:37;;;;;;;8.23;5.25;;;8.20;99.90;;;;;;5035146;28;20044;-39
2022/11/27 12:28:42;;;;;;;7.50;4.87;;;8.20;99.90;;;;;;5041430;28;20029;-41
2022/11/27 12:31:26;;;;;;;7.45;5.30;;;8.20;99.90;;;;;;5043775;28;20278;-42
2022/11/27 12:34:00;;;;;;;7.20;5.18;;;8.30;99.90;;;;;;5043269;28;20067;-40
2022/11/27 12:36:42;;;;;;;7.47;5.03;;;8.30;99.90;;;;;;5042874;28;20057;-39
2022/11/27 12:39:10;;;;;;;7.22;4.93;;;8.40;99.90;;;;;;5042401;28;20071;-42
2022/11/27 12:41:59;;;;;;;6.57;4.97;;;8.40;99.90;;;;;;5043341;28;20033;-40
2022/11/27 12:44:54;;;;;;;7.88;5.70;;;8.40;99.90;;;;;;5043798;28;20497;-42
2022/11/27 12:47:49;;;;;;;8.45;5.32;;;8.40;99.90;;;;;;5042628;28;20315;-40
2022/11/27 12:50:37;;;;;;;5.45;3.97;;;8.40;99.90;;;;;;5039428;28;20033;-39
2022/11/27 12:53:13;;;;;;;5.80;4.45;;;8.40;99.90;;;;;;5042213;28;20059;-41
2022/11/27 12:55:40;;;;;;;5.53;4.38;;;8.40;99.90;;;;;;5023296;28;20037;-44
2022/11/27 12:58:11;;;;;;;6.25;5.05;;;8.50;99.90;;;;;;5037881;28;20035;-41
2022/11/27 13:00:40;;;;;;;6.97;4.93;;;8.40;99.90;;;;;;5042250;28;20067;-41
2022/11/27 13:03:14;;;;;;;6.00;4.20;;;8.40;99.90;;;;;;5042508;28;20024;-40
2022/11/27 13:05:46;;;;;;;8.52;5.28;;;8.40;99.90;;;;;;5043405;28;20127;-40
2022/11/27 13:08:19;;;;;;;7.40;4.97;;;8.40;99.90;;;;;;5042920;28;20025;-41
2022/11/27 13:10:53;;;;;;;;;;;8.40;99.90;;;;;;5043780;28;20061;-38
2022/11/27 13:13:49;;;;;;;7.22;4.85;;;8.40;99.90;;;;;;5042004;28;19909;-39